Hauptseite
METAR-TAF:

METAR-TAF

Flughäfen :

Fliegerhorst Nordholz

Nordholz, Deutschland

Breite: 53-46N, Länge: 008-40E, Höhe: 23 m

Beobachtung

Neuester Wetterbericht von vor 49 Minuten, um 07:20 UTC
Wind 3 kt aus unterschiedlichen Richtungen
Temperatur 21°C
Luftfeuchtigkeit 64%
Luftdruck 1025 hPa
Sichtweite 10 km oder mehr
Leicht bewölkt in der Höhe von 35000 ft

METAR: ETMN 110720Z VRB03KT 9999 FEW350 21/14 Q1025 BLU+BLU+

Zeit: 10:09 (08:09 UTC)

Prognose

Neuester Wetterbericht von vor 1 Stunde und 2 Minuten, um 07:07 UTC
Gültige Prognose vom 11 um 08 UTC bis 11 um 17 UTC
Wind 5 kt aus Ost
Sichtweite 10 km oder mehr
Leicht bewölkt in der Höhe von 4000 ft

TAF: ETMN 110707Z 1108/1117 08005KT 9999 NSW FEW040

Wetterbeobachtungen und Prognosen von mehr als 4000 Flughäfen (METAR und TAF Bericht).

Die verfügbaren Stationen werden durch gelbe und rote Markierungen auf der Karte dargestellt.

Führen Sie die Maus auf sie, um den Namen der Station zu sehen.

Darauf klicken, um die Beobachtung von Wetterbeobachtungen und Prognosen zu sehen.

Um die Karte zu ändern : klicken Sie auf den grünen Tasten mit einem schwarzen Kreuz Zum Vergrößern, auf den grünen Button mit einem Gedankenstrich zu verkleinern, oder auf die grünen Pfeile für benachbarte Karten.


METAR-TAF: